Time;durP1;ratioP1;P1;durP2;ratioP2;P2;SDS_P1;SDS_P2;PMS_P1;PMS_P2;Temp;Humidity;BMP_temperature;BMP_pressure;BME280_temperature;BME280_humidity;BME280_pressure;Samples;Min_cycle;Max_cycle;Signal;HPM_P1;HPM_P2
2024/01/02 00:00:52;;;;;;;2.35;1.20;;;;;17.50;99185.00;;;;2083447;28;20221;-53
2024/01/02 00:01:52;;;;;;;3.90;1.30;;;;;17.50;99175.00;;;;2075913;28;20245;-53
2024/01/02 00:02:53;;;;;;;2.33;0.83;;;;;17.50;99170.00;;;;2081041;28;20219;-53
2024/01/02 00:03:53;;;;;;;2.00;0.87;;;;;17.50;99173.00;;;;2081136;28;20222;-53
2024/01/02 00:04:53;;;;;;;2.00;0.70;;;;;17.50;99170.00;;;;2084876;28;20305;-53
2024/01/02 00:05:54;;;;;;;1.90;0.90;;;;;17.50;99170.00;;;;2085637;28;20218;-53
2024/01/02 00:06:54;;;;;;;2.30;1.00;;;;;17.50;99161.00;;;;2075734;28;20225;-53
2024/01/02 00:07:54;;;;;;;1.90;0.90;;;;;17.50;99160.00;;;;2077075;28;20256;-53
2024/01/02 00:08:55;;;;;;;3.10;1.00;;;;;17.50;99163.00;;;;2085835;28;20271;-53
2024/01/02 00:09:55;;;;;;;2.70;0.90;;;;;17.50;99159.00;;;;2085051;28;20214;-53
2024/01/02 00:10:55;;;;;;;2.33;1.07;;;;;17.50;99154.00;;;;2085066;28;20225;-53
2024/01/02 00:11:55;;;;;;;2.03;1.03;;;;;17.50;99139.00;;;;2073017;28;20221;-53
2024/01/02 00:12:58;;;;;;;2.07;0.83;;;;;17.50;99137.00;;;;2080258;28;20234;-53
2024/01/02 00:13:58;;;;;;;2.15;1.00;;;;;17.50;99133.00;;;;2085568;28;20326;-53
2024/01/02 00:15:00;;;;;;;2.60;0.80;;;;;17.50;99142.00;;;;2082551;28;20275;-53
2024/01/02 00:16:00;;;;;;;3.17;1.30;;;;;17.50;99143.00;;;;2083022;28;20234;-55
2024/01/02 00:17:00;;;;;;;1.80;0.77;;;;;17.50;99141.00;;;;2075079;28;20285;-54
2024/01/02 00:18:01;;;;;;;3.30;1.30;;;;;17.50;99133.00;;;;2085631;28;20234;-54
2024/01/02 00:19:01;;;;;;;2.17;1.03;;;;;17.50;99135.00;;;;2083987;28;20210;-54
2024/01/02 00:20:02;;;;;;;3.37;1.23;;;;;17.50;99130.00;;;;2081458;28;20318;-54
2024/01/02 00:21:03;;;;;;;2.27;1.00;;;;;17.50;99127.00;;;;2084354;28;20219;-53
2024/01/02 00:22:03;;;;;;;2.67;0.90;;;;;17.50;99127.00;;;;2074837;28;20468;-53
2024/01/02 00:23:03;;;;;;;3.33;1.00;;;;;17.50;99123.00;;;;2085492;28;20218;-53
2024/01/02 00:24:04;;;;;;;3.10;0.93;;;;;17.50;99117.00;;;;2083880;28;20214;-53
2024/01/02 00:25:06;;;;;;;2.67;0.85;;;;;17.50;99113.00;;;;2085289;28;20721;-53
2024/01/02 00:26:06;;;;;;;2.50;0.80;;;;;17.50;99111.00;;;;2084264;28;20306;-53
2024/01/02 00:27:06;;;;;;;2.27;0.80;;;;;17.50;99105.00;;;;2075884;28;20237;-54
2024/01/02 00:28:07;;;;;;;2.77;0.80;;;;;17.50;99099.00;;;;2091253;28;20237;-53
2024/01/02 00:29:07;;;;;;;2.27;1.10;;;;;17.40;99097.00;;;;2084632;28;20294;-54
2024/01/02 00:30:08;;;;;;;2.50;0.90;;;;;17.50;99086.00;;;;2091180;28;20299;-54
2024/01/02 00:31:09;;;;;;;2.93;1.20;;;;;17.50;99091.00;;;;2085833;28;20705;-54
2024/01/02 00:32:09;;;;;;;4.07;1.10;;;;;17.40;99089.00;;;;2081222;28;21048;-54
2024/01/02 00:33:09;;;;;;;3.93;0.90;;;;;17.40;99085.00;;;;2089881;28;20214;-54
2024/01/02 00:34:11;;;;;;;2.97;0.90;;;;;17.50;99080.00;;;;2085356;28;20288;-54
2024/01/02 00:35:11;;;;;;;2.03;0.75;;;;;17.50;99085.00;;;;2085302;28;20214;-54
2024/01/02 00:36:12;;;;;;;2.77;1.03;;;;;17.40;99083.00;;;;2084719;28;20275;-53
2024/01/02 00:37:12;;;;;;;1.73;0.60;;;;;17.50;99083.00;;;;2075815;28;21021;-53
2024/01/02 00:38:13;;;;;;;2.30;1.00;;;;;17.50;99087.00;;;;2084386;28;20254;-53
2024/01/02 00:39:13;;;;;;;2.77;1.10;;;;;17.50;99073.00;;;;2092019;28;20239;-53
2024/01/02 00:40:14;;;;;;;2.87;0.97;;;;;17.50;99076.00;;;;2086676;28;20217;-54
2024/01/02 00:41:14;;;;;;;1.90;0.80;;;;;17.50;99086.00;;;;2084254;28;20225;-53
2024/01/02 00:42:14;;;;;;;2.30;0.90;;;;;17.50;99072.00;;;;2075828;28;20582;-53
2024/01/02 00:43:15;;;;;;;2.80;1.10;;;;;17.40;99063.00;;;;2085010;28;20644;-53
2024/01/02 00:44:15;;;;;;;2.70;1.00;;;;;17.40;99063.00;;;;2085078;28;20698;-53
2024/01/02 00:45:16;;;;;;;1.83;0.60;;;;;17.50;99062.00;;;;2084081;28;20718;-53
2024/01/02 00:46:16;;;;;;;3.10;1.10;;;;;17.50;99063.00;;;;2085279;28;20223;-53
2024/01/02 00:47:20;;;;;;;2.17;0.87;;;;;17.40;99060.00;;;;2077324;28;20233;-53
2024/01/02 00:48:21;;;;;;;2.85;0.88;;;;;17.40;99059.00;;;;2084574;28;20991;-53
2024/01/02 00:49:21;;;;;;;1.80;0.80;;;;;17.50;99059.00;;;;2085426;28;20223;-53
2024/01/02 00:50:21;;;;;;;2.70;0.70;;;;;17.50;99053.00;;;;2084656;28;20234;-53
2024/01/02 00:51:22;;;;;;;1.90;0.90;;;;;17.40;99053.00;;;;2084132;28;20247;-53
2024/01/02 00:52:22;;;;;;;2.53;1.20;;;;;17.50;99042.00;;;;2074666;28;20685;-53
2024/01/02 00:53:23;;;;;;;2.30;1.20;;;;;17.40;99047.00;;;;2085244;28;20701;-53
2024/01/02 00:54:23;;;;;;;1.90;0.73;;;;;17.50;99039.00;;;;2084162;28;20238;-53
2024/01/02 00:55:24;;;;;;;2.10;0.80;;;;;17.50;99036.00;;;;2085567;28;20218;-53
2024/01/02 00:56:24;;;;;;;2.63;0.80;;;;;17.50;99030.00;;;;2085395;28;20255;-53
2024/01/02 00:57:26;;;;;;;3.00;0.80;;;;;17.50;99035.00;;;;2073543;28;20218;-53
2024/01/02 00:58:26;;;;;;;2.60;1.00;;;;;17.50;99017.00;;;;2085580;28;20730;-52
2024/01/02 00:59:27;;;;;;;3.27;1.03;;;;;17.50;99022.00;;;;2083989;28;20228;-53
2024/01/02 01:00:27;;;;;;;3.10;0.80;;;;;17.50;99017.00;;;;2085442;28;20502;-53
2024/01/02 01:01:27;;;;;;;2.37;1.00;;;;;17.40;99015.00;;;;2083605;28;20635;-53
2024/01/02 01:02:28;;;;;;;2.90;0.90;;;;;17.40;99014.00;;;;2074992;28;20316;-53
2024/01/02 01:03:28;;;;;;;2.93;0.80;;;;;17.50;99014.00;;;;2085622;28;20222;-53
2024/01/02 01:04:28;;;;;;;2.27;0.90;;;;;17.40;99012.00;;;;2084696;28;20231;-53
2024/01/02 01:05:29;;;;;;;2.00;1.10;;;;;17.40;99011.00;;;;2093190;28;20848;-53
2024/01/02 01:06:29;;;;;;;2.97;1.00;;;;;17.50;99012.00;;;;2084704;28;20586;-53
2024/01/02 01:07:29;;;;;;;1.97;0.80;;;;;17.50;99001.00;;;;2075895;28;20616;-53
2024/01/02 01:08:30;;;;;;;1.70;0.63;;;;;17.50;99012.00;;;;2086222;28;20225;-53
2024/01/02 01:09:30;;;;;;;2.17;0.60;;;;;17.50;99002.00;;;;2086137;28;20231;-53
2024/01/02 01:10:30;;;;;;;2.63;0.93;;;;;17.50;98997.00;;;;2086870;28;20261;-53
2024/01/02 01:11:31;;;;;;;2.50;0.90;;;;;17.50;98992.00;;;;2083879;28;20221;-53
2024/01/02 01:12:31;;;;;;;1.87;0.73;;;;;16.70;98989.00;;;;2083340;28;20270;-53
2024/01/02 01:13:31;;;;;;;2.13;0.80;;;;;17.50;99031.00;;;;2078910;28;20274;-53
2024/01/02 01:14:32;;;;;;;2.27;0.70;;;;;17.50;98977.00;;;;2087599;28;20573;-56
2024/01/02 01:15:32;;;;;;;2.53;0.70;;;;;17.50;98976.00;;;;2086589;28;20233;-54
2024/01/02 01:16:33;;;;;;;1.67;0.60;;;;;17.40;98979.00;;;;2085953;28;20209;-54
2024/01/02 01:17:33;;;;;;;2.37;0.97;;;;;17.50;98966.00;;;;2077116;28;20217;-54
2024/01/02 01:18:34;;;;;;;2.13;0.77;;;;;17.40;98964.00;;;;2089678;28;20786;-54
2024/01/02 01:19:34;;;;;;;2.10;0.70;;;;;17.40;98960.00;;;;2094743;28;20217;-53
2024/01/02 01:20:34;;;;;;;1.63;0.60;;;;;17.50;98956.00;;;;2085728;28;20225;-53
2024/01/02 01:21:35;;;;;;;2.13;1.00;;;;;17.40;98953.00;;;;2077676;28;20228;-54
2024/01/02 01:22:36;;;;;;;1.63;0.67;;;;;17.50;98950.00;;;;2076531;28;20306;-54
2024/01/02 01:23:36;;;;;;;1.60;0.73;;;;;17.40;98949.00;;;;2085575;28;20222;-53
2024/01/02 01:24:36;;;;;;;2.53;1.00;;;;;17.40;98944.00;;;;2086714;28;20484;-53
2024/01/02 01:25:37;;;;;;;1.97;0.83;;;;;17.40;98937.00;;;;2086502;28;20233;-53
2024/01/02 01:26:37;;;;;;;1.80;0.60;;;;;17.40;98946.00;;;;2094275;28;20230;-53
2024/01/02 01:27:37;;;;;;;2.50;0.80;;;;;17.50;98936.00;;;;2076381;28;20218;-54
2024/01/02 01:28:38;;;;;;;1.80;0.60;;;;;17.40;98934.00;;;;2085599;28;20240;-54
2024/01/02 01:29:38;;;;;;;1.53;0.80;;;;;17.40;98931.00;;;;2086667;28;20211;-53
2024/01/02 01:30:38;;;;;;;2.83;0.70;;;;;17.40;98931.00;;;;2085284;28;20224;-53
2024/01/02 01:31:39;;;;;;;1.67;0.77;;;;;17.40;98925.00;;;;2086550;28;20282;-53
2024/01/02 01:32:39;;;;;;;1.87;0.80;;;;;17.40;98928.00;;;;2075858;28;20257;-53
2024/01/02 01:33:39;;;;;;;1.83;0.63;;;;;17.40;98929.00;;;;2086250;28;20222;-52
2024/01/02 01:34:40;;;;;;;3.20;0.80;;;;;17.40;98757.00;;;;2085631;28;20243;-52
2024/01/02 01:35:40;;;;;;;2.53;0.90;;;;;17.40;98909.00;;;;2086821;28;20551;-52
2024/01/02 01:36:41;;;;;;;2.05;0.90;;;;;17.40;98908.00;;;;2090990;28;20225;-53
2024/01/02 01:37:42;;;;;;;2.70;0.93;;;;;17.40;98906.00;;;;2082392;28;20283;-53
2024/01/02 01:38:42;;;;;;;3.00;0.90;;;;;17.50;98905.00;;;;2086624;28;20221;-52
2024/01/02 01:39:42;;;;;;;2.17;0.80;;;;;17.50;98902.00;;;;2086585;28;20300;-51
2024/01/02 01:40:42;;;;;;;2.20;0.77;;;;;17.40;98901.00;;;;2092501;28;20212;-52
2024/01/02 01:41:43;;;;;;;2.20;0.97;;;;;17.50;98898.00;;;;2076210;28;20214;-52
2024/01/02 01:42:43;;;;;;;2.33;0.70;;;;;17.40;98888.00;;;;2085932;28;20217;-53
2024/01/02 01:43:43;;;;;;;1.60;0.80;;;;;17.50;98885.00;;;;2086605;28;20219;-52
2024/01/02 01:44:44;;;;;;;1.40;0.53;;;;;17.40;98880.00;;;;2085570;28;20215;-52
2024/01/02 01:45:44;;;;;;;2.90;1.03;;;;;17.40;98881.00;;;;2088254;28;20211;-52
2024/01/02 01:46:45;;;;;;;2.10;0.83;;;;;17.40;98838.00;;;;2081643;28;20293;-52
2024/01/02 01:47:45;;;;;;;1.50;0.60;;;;;17.40;98863.00;;;;2085791;28;20214;-52
2024/01/02 01:48:46;;;;;;;2.30;0.70;;;;;17.40;98867.00;;;;2085922;28;20210;-52
2024/01/02 01:49:46;;;;;;;2.10;0.80;;;;;17.40;98858.00;;;;2085578;28;20211;-52
2024/01/02 01:50:46;;;;;;;2.23;0.70;;;;;17.40;98850.00;;;;2076486;28;20215;-52
2024/01/02 01:51:47;;;;;;;1.60;0.50;;;;;17.40;98839.00;;;;2058774;28;20654;-53
2024/01/02 01:52:47;;;;;;;2.60;0.80;;;;;17.40;98870.00;;;;2071067;28;20595;-52
2024/01/02 01:53:47;;;;;;;1.80;0.73;;;;;17.40;98859.00;;;;2076681;28;20229;-51
2024/01/02 01:54:48;;;;;;;3.83;0.90;;;;;17.40;98864.00;;;;2085862;28;20290;-52
2024/01/02 01:55:48;;;;;;;1.60;0.70;;;;;17.40;98859.00;;;;2086475;28;20262;-52
2024/01/02 01:56:48;;;;;;;2.20;0.90;;;;;17.40;98822.00;;;;2075855;28;20216;-52
2024/01/02 01:57:49;;;;;;;2.50;0.70;;;;;17.40;98856.00;;;;2085873;28;20219;-52
2024/01/02 01:58:49;;;;;;;2.40;0.80;;;;;17.40;98851.00;;;;2070098;28;20222;-51
2024/01/02 01:59:49;;;;;;;2.03;0.60;;;;;17.40;98851.00;;;;2092058;28;20219;-51
2024/01/02 02:00:50;;;;;;;1.77;0.80;;;;;17.40;98857.00;;;;2083775;28;20459;-53
2024/01/02 02:01:50;;;;;;;3.80;0.73;;;;;17.40;98842.00;;;;2067769;28;20762;-52
2024/01/02 02:02:50;;;;;;;2.13;0.60;;;;;17.40;98842.00;;;;2072973;28;20798;-52
2024/01/02 02:03:51;;;;;;;2.50;1.10;;;;;17.40;98845.00;;;;2082340;28;20703;-53
2024/01/02 02:04:51;;;;;;;1.90;0.60;;;;;17.40;98833.00;;;;2082214;28;20250;-53
2024/01/02 02:05:51;;;;;;;2.30;0.77;;;;;17.40;98820.00;;;;2089671;28;20220;-52
2024/01/02 02:06:52;;;;;;;1.53;0.73;;;;;17.40;98824.00;;;;2083350;28;20274;-52
2024/01/02 02:07:53;;;;;;;2.10;0.70;;;;;17.40;98817.00;;;;2090855;28;20241;-52
2024/01/02 02:08:53;;;;;;;4.30;0.90;;;;;17.40;98812.00;;;;2088185;28;20999;-53
2024/01/02 02:09:54;;;;;;;3.50;0.87;;;;;17.40;98847.00;;;;2092094;28;20853;-52
2024/01/02 02:10:54;;;;;;;1.70;0.70;;;;;17.40;98799.00;;;;2083957;28;20632;-53
2024/01/02 02:11:54;;;;;;;2.30;0.60;;;;;17.40;98801.00;;;;2076232;28;20689;-53
2024/01/02 02:12:55;;;;;;;1.70;0.70;;;;;17.40;98799.00;;;;2087657;28;20686;-53
2024/01/02 02:13:55;;;;;;;1.80;0.70;;;;;17.40;98781.00;;;;2092158;28;20221;-53
2024/01/02 02:14:55;;;;;;;1.70;0.83;;;;;17.40;98787.00;;;;2084482;28;20219;-53
2024/01/02 02:15:56;;;;;;;3.53;0.80;;;;;17.40;98768.00;;;;2085777;28;20222;-53
2024/01/02 02:16:57;;;;;;;1.80;0.73;;;;;17.40;98773.00;;;;2076651;28;20216;-52
2024/01/02 02:17:57;;;;;;;2.88;0.88;;;;;17.40;98764.00;;;;2084058;28;20223;-52
2024/01/02 02:18:57;;;;;;;2.27;0.77;;;;;17.40;98758.00;;;;2086396;28;20226;-52
2024/01/02 02:19:58;;;;;;;1.73;0.73;;;;;17.40;98752.00;;;;2085094;28;20691;-53
2024/01/02 02:20:58;;;;;;;1.77;0.73;;;;;17.40;98755.00;;;;2085154;28;20229;-52
2024/01/02 02:21:58;;;;;;;2.00;0.70;;;;;17.40;98730.00;;;;2076769;28;20506;-52
2024/01/02 02:22:59;;;;;;;2.63;0.70;;;;;17.40;98749.00;;;;2072179;28;20219;-52
2024/01/02 02:24:00;;;;;;;2.20;0.70;;;;;17.40;98746.00;;;;2082469;28;20299;-53
2024/01/02 02:25:04;;;;;;;1.70;0.70;;;;;17.40;98741.00;;;;2087925;28;20213;-53
2024/01/02 02:26:04;;;;;;;2.60;0.80;;;;;17.40;98749.00;;;;2085801;28;20219;-54
2024/01/02 02:27:04;;;;;;;2.60;0.80;;;;;17.40;98740.00;;;;2075606;28;20257;-52
2024/01/02 02:28:05;;;;;;;1.67;0.50;;;;;17.40;98746.00;;;;2089370;28;20287;-52
2024/01/02 02:29:05;;;;;;;1.80;0.70;;;;;17.40;98742.00;;;;2090195;28;20216;-52
2024/01/02 02:30:06;;;;;;;1.60;0.53;;;;;17.40;98730.00;;;;2084005;28;20233;-52
2024/01/02 02:31:06;;;;;;;1.80;0.70;;;;;17.40;98733.00;;;;2085061;28;20221;-52
2024/01/02 02:32:06;;;;;;;2.83;0.60;;;;;17.40;98725.00;;;;2075713;28;20235;-52
2024/01/02 02:33:07;;;;;;;1.97;0.70;;;;;17.40;98722.00;;;;2090087;28;20220;-52
2024/01/02 02:34:07;;;;;;;2.10;0.80;;;;;17.40;98725.00;;;;2089699;28;20254;-52
2024/01/02 02:35:08;;;;;;;1.50;0.70;;;;;17.40;98712.00;;;;2086145;28;20275;-52
2024/01/02 02:36:08;;;;;;;2.03;0.60;;;;;17.40;98711.00;;;;2086355;28;20218;-53
2024/01/02 02:37:08;;;;;;;1.67;0.63;;;;;17.40;98716.00;;;;2075515;28;20229;-52
2024/01/02 02:38:09;;;;;;;2.17;0.80;;;;;17.40;98719.00;;;;2090139;28;20224;-52
2024/01/02 02:39:09;;;;;;;2.97;1.00;;;;;17.40;98718.00;;;;2087915;28;20213;-51
2024/01/02 02:40:10;;;;;;;2.03;0.60;;;;;17.40;98703.00;;;;2086174;28;20261;-52
2024/01/02 02:41:10;;;;;;;2.33;0.80;;;;;17.40;98700.00;;;;2083462;28;20254;-52
2024/01/02 02:42:10;;;;;;;2.03;0.60;;;;;17.40;98687.00;;;;2076497;28;20514;-53
2024/01/02 02:43:11;;;;;;;1.70;0.53;;;;;17.40;98694.00;;;;2086129;28;20307;-52
2024/01/02 02:44:11;;;;;;;1.73;0.80;;;;;17.30;98684.00;;;;2089269;28;20224;-52
2024/01/02 02:45:11;;;;;;;2.83;0.70;;;;;17.40;98676.00;;;;2094157;28;20213;-51
2024/01/02 02:46:12;;;;;;;1.50;0.60;;;;;17.40;98676.00;;;;2088099;28;20334;-52
2024/01/02 02:47:12;;;;;;;1.50;0.60;;;;;17.40;98669.00;;;;2076028;28;20297;-52
2024/01/02 02:48:13;;;;;;;2.07;0.67;;;;;17.40;98657.00;;;;2085131;28;20293;-52
2024/01/02 02:49:13;;;;;;;1.80;0.70;;;;;17.40;98651.00;;;;2086053;28;20218;-52
2024/01/02 02:50:13;;;;;;;2.57;0.80;;;;;17.40;98645.00;;;;2090548;28;20702;-52
2024/01/02 02:51:14;;;;;;;2.33;0.70;;;;;17.40;98657.00;;;;2084199;28;20224;-52
2024/01/02 02:52:14;;;;;;;1.80;0.63;;;;;17.40;98656.00;;;;2076037;28;20743;-52
2024/01/02 02:53:14;;;;;;;1.93;0.63;;;;;17.40;98644.00;;;;2085220;28;20222;-52
2024/01/02 02:54:15;;;;;;;1.67;0.80;;;;;17.40;98627.00;;;;2090656;28;20261;-52
2024/01/02 02:55:15;;;;;;;1.83;0.60;;;;;17.40;98623.00;;;;2088935;28;20241;-52
2024/01/02 02:56:15;;;;;;;1.80;0.50;;;;;17.40;98621.00;;;;2086244;28;20215;-52
2024/01/02 02:57:16;;;;;;;1.53;0.60;;;;;17.40;98616.00;;;;2075602;28;20229;-53
2024/01/02 02:58:17;;;;;;;2.30;1.00;;;;;17.40;98613.00;;;;2089911;28;20768;-52
2024/01/02 02:59:17;;;;;;;1.20;0.40;;;;;17.40;98594.00;;;;2089285;28;20235;-52
2024/01/02 03:00:18;;;;;;;1.93;0.77;;;;;17.30;98598.00;;;;2085227;28;20218;-52
2024/01/02 03:01:24;;;;;;;1.30;0.60;;;;;17.40;98593.00;;;;2089795;28;20705;-52
2024/01/02 03:02:24;;;;;;;1.60;0.60;;;;;17.40;98593.00;;;;2077068;28;21279;-52
2024/01/02 03:03:25;;;;;;;1.70;0.80;;;;;17.40;98584.00;;;;2086097;28;20292;-52
2024/01/02 03:04:25;;;;;;;1.60;0.63;;;;;17.40;98588.00;;;;2085398;28;20211;-52
2024/01/02 03:05:25;;;;;;;1.33;0.57;;;;;17.40;98584.00;;;;2091018;28;20223;-52
2024/01/02 03:06:26;;;;;;;1.70;0.50;;;;;17.40;98585.00;;;;2088302;28;20284;-53
2024/01/02 03:07:26;;;;;;;1.37;0.50;;;;;17.40;98577.00;;;;2075225;28;20696;-53
2024/01/02 03:08:27;;;;;;;1.80;0.50;;;;;17.40;98576.00;;;;2092272;28;20222;-52
2024/01/02 03:09:27;;;;;;;2.30;0.50;;;;;17.40;98576.00;;;;2087002;28;20222;-52
2024/01/02 03:10:27;;;;;;;3.90;0.80;;;;;17.40;98574.00;;;;2085874;28;20227;-52
2024/01/02 03:11:28;;;;;;;1.50;0.60;;;;;17.40;98559.00;;;;2091112;28;20298;-52
2024/01/02 03:12:28;;;;;;;2.17;0.70;;;;;17.40;98579.00;;;;2076027;28;20242;-52
2024/01/02 03:13:29;;;;;;;2.80;0.77;;;;;17.40;98596.00;;;;2092093;28;20774;-52
2024/01/02 03:14:30;;;;;;;1.53;0.50;;;;;17.40;98542.00;;;;2085218;28;20690;-52
2024/01/02 03:15:30;;;;;;;2.10;0.63;;;;;17.40;98547.00;;;;2084169;28;20238;-52
2024/01/02 03:16:30;;;;;;;1.93;1.10;;;;;17.40;98538.00;;;;2084587;28;20768;-53
2024/01/02 03:17:31;;;;;;;1.60;0.50;;;;;17.40;98534.00;;;;2075025;28;20230;-52
2024/01/02 03:18:31;;;;;;;1.90;0.60;;;;;17.40;98536.00;;;;2092397;28;20214;-51
2024/01/02 03:19:31;;;;;;;1.67;0.70;;;;;17.40;98540.00;;;;2085971;28;20240;-52
2024/01/02 03:20:31;;;;;;;1.83;0.73;;;;;17.40;98536.00;;;;2092593;28;20250;-51
2024/01/02 03:21:32;;;;;;;1.73;0.60;;;;;17.40;98548.00;;;;2085314;28;20222;-51
2024/01/02 03:22:32;;;;;;;1.77;0.60;;;;;17.40;98541.00;;;;2076202;28;20221;-52
2024/01/02 03:23:33;;;;;;;1.20;0.50;;;;;17.40;98531.00;;;;2084443;28;20256;-52
2024/01/02 03:24:33;;;;;;;1.87;0.60;;;;;17.40;98517.00;;;;2085445;28;20218;-51
2024/01/02 03:25:34;;;;;;;1.37;0.63;;;;;17.40;98519.00;;;;2085821;28;20462;-52
2024/01/02 03:26:34;;;;;;;1.90;0.63;;;;;17.40;98515.00;;;;2084849;28;20340;-52
2024/01/02 03:27:35;;;;;;;1.40;0.50;;;;;17.40;98520.00;;;;2082783;28;20218;-52
2024/01/02 03:28:35;;;;;;;2.50;0.80;;;;;17.40;98510.00;;;;2088419;28;20215;-52
2024/01/02 03:29:35;;;;;;;1.50;0.70;;;;;17.40;98517.00;;;;2092120;28;20218;-52
2024/01/02 03:30:40;;;;;;;2.20;0.67;;;;;17.40;98499.00;;;;2086060;28;20222;-51
2024/01/02 03:31:40;;;;;;;2.30;0.80;;;;;17.40;98510.00;;;;2093500;28;20205;-51
2024/01/02 03:32:41;;;;;;;1.33;0.50;;;;;17.40;98504.00;;;;2081895;28;20220;-51
2024/01/02 03:33:41;;;;;;;1.63;0.70;;;;;17.40;98493.00;;;;2085223;28;20213;-51
2024/01/02 03:34:41;;;;;;;1.90;0.40;;;;;17.40;98502.00;;;;2085753;28;20206;-52
2024/01/02 03:35:42;;;;;;;1.60;0.63;;;;;17.40;98491.00;;;;2084848;28;20214;-52
2024/01/02 03:36:42;;;;;;;1.80;0.67;;;;;17.40;98467.00;;;;2078657;28;20239;-52
2024/01/02 03:37:43;;;;;;;1.50;0.60;;;;;17.40;98469.00;;;;2082990;28;20210;-52
2024/01/02 03:38:44;;;;;;;1.40;0.50;;;;;17.40;98474.00;;;;2093718;28;20213;-52
2024/01/02 03:39:45;;;;;;;1.27;0.50;;;;;17.40;98458.00;;;;2085726;28;20212;-52
2024/01/02 03:40:45;;;;;;;1.40;0.50;;;;;17.40;98451.00;;;;2083271;28;20210;-51
2024/01/02 03:41:45;;;;;;;1.80;0.80;;;;;17.40;98451.00;;;;2068159;28;20216;-51
2024/01/02 03:42:46;;;;;;;2.43;0.60;;;;;17.40;98454.00;;;;2091303;28;20214;-52
2024/01/02 03:43:46;;;;;;;1.33;0.50;;;;;17.40;98520.00;;;;2092260;28;20216;-52
2024/01/02 03:44:46;;;;;;;1.63;0.70;;;;;17.40;98495.00;;;;2084553;28;20246;-51
2024/01/02 03:45:47;;;;;;;2.07;0.77;;;;;17.40;98450.00;;;;2085493;28;20724;-52
2024/01/02 03:46:47;;;;;;;1.50;0.50;;;;;17.40;98445.00;;;;2083482;28;20217;-52
2024/01/02 03:47:48;;;;;;;1.67;0.80;;;;;17.40;98437.00;;;;2084627;28;20214;-51
2024/01/02 03:48:48;;;;;;;1.20;0.50;;;;;17.40;98441.00;;;;2093484;28;20210;-51
2024/01/02 03:49:49;;;;;;;1.30;0.50;;;;;17.40;98433.00;;;;2084751;28;20215;-52
2024/01/02 03:50:50;;;;;;;2.73;0.60;;;;;17.40;98440.00;;;;2081445;28;20211;-51
2024/01/02 03:51:50;;;;;;;1.70;0.80;;;;;17.40;98410.00;;;;2071299;28;20489;-52
2024/01/02 03:52:50;;;;;;;1.20;0.50;;;;;17.40;98420.00;;;;2084973;28;20216;-52
2024/01/02 03:53:51;;;;;;;1.30;0.60;;;;;17.40;98426.00;;;;2085802;28;20214;-52
2024/01/02 03:54:51;;;;;;;1.93;0.80;;;;;17.40;98395.00;;;;2084898;28;20233;-51
2024/01/02 03:55:51;;;;;;;2.13;0.50;;;;;17.40;98396.00;;;;2085667;28;20219;-52
2024/01/02 03:56:52;;;;;;;1.70;0.60;;;;;17.40;98390.00;;;;2075103;28;20207;-52
2024/01/02 03:57:52;;;;;;;1.30;0.50;;;;;17.40;98406.00;;;;2093566;28;20255;-53
2024/01/02 03:58:52;;;;;;;1.40;0.60;;;;;17.40;98407.00;;;;2093052;28;20206;-51
2024/01/02 03:59:53;;;;;;;1.20;0.50;;;;;17.40;98416.00;;;;2085553;28;22425;-52
2024/01/02 04:00:53;;;;;;;1.80;0.63;;;;;17.40;98402.00;;;;2091827;28;20225;-52
2024/01/02 04:01:54;;;;;;;1.50;0.50;;;;;17.40;98383.00;;;;2074702;28;20233;-52
2024/01/02 04:02:54;;;;;;;1.30;0.50;;;;;17.40;98375.00;;;;2086469;28;20217;-52
2024/01/02 04:03:55;;;;;;;1.20;0.57;;;;;17.40;98373.00;;;;2090319;28;20237;-52
2024/01/02 04:04:55;;;;;;;1.37;0.60;;;;;17.40;98370.00;;;;2085552;28;20214;-51
2024/01/02 04:05:55;;;;;;;1.53;0.60;;;;;16.90;98377.00;;;;2085668;28;20218;-52
2024/01/02 04:06:56;;;;;;;1.30;0.50;;;;;17.40;98214.00;;;;2073496;28;20248;-52
2024/01/02 04:07:56;;;;;;;1.80;0.70;;;;;17.40;98371.00;;;;2085735;28;20214;-52
2024/01/02 04:08:57;;;;;;;1.10;0.43;;;;;17.40;98366.00;;;;2087830;28;20218;-51
2024/01/02 04:09:57;;;;;;;1.60;0.70;;;;;17.40;98367.00;;;;2085603;28;20212;-52
2024/01/02 04:10:57;;;;;;;1.40;0.70;;;;;17.40;98350.00;;;;2083433;28;20254;-52
2024/01/02 04:11:58;;;;;;;1.50;0.57;;;;;17.40;98346.00;;;;2075195;28;20218;-52
2024/01/02 04:12:58;;;;;;;1.30;0.53;;;;;17.40;98358.00;;;;2086774;28;20224;-51
2024/01/02 04:13:58;;;;;;;1.50;0.70;;;;;17.40;98347.00;;;;2085331;28;20249;-52
2024/01/02 04:14:58;;;;;;;1.70;0.40;;;;;17.40;98345.00;;;;2085351;28;20229;-52
2024/01/02 04:15:59;;;;;;;1.30;0.50;;;;;17.40;98328.00;;;;2083970;28;20230;-52
2024/01/02 04:16:59;;;;;;;1.63;0.60;;;;;17.40;98335.00;;;;2075635;28;20330;-52
2024/01/02 04:17:59;;;;;;;1.30;0.53;;;;;17.40;98333.00;;;;2086419;28;20222;-52
2024/01/02 04:19:00;;;;;;;1.30;0.50;;;;;17.40;98345.00;;;;2079205;28;20218;-52
2024/01/02 04:20:00;;;;;;;1.93;0.57;;;;;17.40;98363.00;;;;2085313;28;20220;-52
2024/01/02 04:21:01;;;;;;;1.20;0.57;;;;;17.40;98314.00;;;;2082849;28;20238;-51
2024/01/02 04:22:01;;;;;;;1.73;0.60;;;;;17.40;98335.00;;;;2075815;28;20234;-52
2024/01/02 04:23:01;;;;;;;1.30;0.60;;;;;17.40;98315.00;;;;2084688;28;20709;-52
2024/01/02 04:24:02;;;;;;;1.57;0.50;;;;;17.40;98310.00;;;;2085551;28;20220;-52
2024/01/02 04:25:02;;;;;;;1.60;0.67;;;;;17.30;98300.00;;;;2085253;28;20251;-51
2024/01/02 04:26:02;;;;;;;2.97;0.60;;;;;17.40;98299.00;;;;2084723;28;20218;-52
2024/01/02 04:27:03;;;;;;;1.70;0.40;;;;;17.40;98290.00;;;;2075589;28;20681;-52
2024/01/02 04:28:03;;;;;;;1.47;0.57;;;;;17.40;98240.00;;;;2083630;28;20325;-52
2024/01/02 04:29:04;;;;;;;1.50;0.57;;;;;17.40;98286.00;;;;2083180;28;20226;-52
2024/01/02 04:30:04;;;;;;;1.30;0.50;;;;;17.40;98278.00;;;;2083937;28;20957;-52
2024/01/02 04:31:06;;;;;;;1.43;0.50;;;;;17.40;98269.00;;;;2083572;28;20690;-57
2024/01/02 04:32:07;;;;;;;1.90;0.50;;;;;17.40;98263.00;;;;2074719;28;20234;-52
2024/01/02 04:33:07;;;;;;;2.23;0.77;;;;;17.40;98272.00;;;;2081964;28;20222;-52
2024/01/02 04:34:07;;;;;;;1.23;0.40;;;;;17.40;98293.00;;;;2085258;28;20281;-51
2024/01/02 04:35:08;;;;;;;1.70;0.73;;;;;17.40;98273.00;;;;2081749;28;20248;-52
2024/01/02 04:36:08;;;;;;;1.43;0.50;;;;;17.40;98268.00;;;;2085673;28;20223;-52
2024/01/02 04:37:08;;;;;;;1.53;0.50;;;;;17.40;98259.00;;;;2074566;28;21220;-52
2024/01/02 04:38:09;;;;;;;1.57;0.50;;;;;17.40;98255.00;;;;2087489;28;20246;-52
2024/01/02 04:39:09;;;;;;;1.10;0.40;;;;;17.40;98260.00;;;;2090827;28;20226;-52
2024/01/02 04:40:10;;;;;;;2.10;0.70;;;;;17.40;98263.00;;;;2084736;28;20228;-51
2024/01/02 04:41:12;;;;;;;2.05;0.60;;;;;17.40;98245.00;;;;2084867;28;20370;-52
2024/01/02 04:42:13;;;;;;;1.20;0.50;;;;;17.40;98249.00;;;;2079213;28;20780;-52
2024/01/02 04:43:13;;;;;;;1.10;0.40;;;;;17.40;98231.00;;;;2094911;28;20218;-52
2024/01/02 04:44:13;;;;;;;1.87;0.50;;;;;17.40;98252.00;;;;2091096;28;20261;-52
2024/01/02 04:45:14;;;;;;;1.30;0.53;;;;;17.40;98215.00;;;;2086916;28;20580;-52
2024/01/02 04:46:14;;;;;;;1.10;0.40;;;;;17.40;98222.00;;;;2087095;28;20778;-52
2024/01/02 04:47:15;;;;;;;2.17;0.57;;;;;17.30;98228.00;;;;2079378;28;20724;-52
2024/01/02 04:48:15;;;;;;;1.13;0.40;;;;;17.40;98223.00;;;;2095197;28;20241;-52
2024/01/02 04:49:15;;;;;;;1.30;0.60;;;;;17.40;98243.00;;;;2085776;28;20219;-52
2024/01/02 04:50:16;;;;;;;1.10;0.43;;;;;17.40;98250.00;;;;2083693;28;20215;-52
2024/01/02 04:51:16;;;;;;;1.43;0.60;;;;;17.40;98252.00;;;;2084868;28;20214;-51
2024/01/02 04:52:16;;;;;;;1.40;0.50;;;;;17.40;98237.00;;;;2072219;28;20223;-51
2024/01/02 04:53:17;;;;;;;1.30;0.50;;;;;17.40;98225.00;;;;2090246;28;20253;-52
2024/01/02 04:54:17;;;;;;;1.50;0.50;;;;;17.40;98237.00;;;;2087286;28;20252;-52
2024/01/02 04:55:18;;;;;;;1.30;0.50;;;;;17.40;98248.00;;;;2087215;28;20279;-52
2024/01/02 04:56:18;;;;;;;1.20;0.50;;;;;17.40;98237.00;;;;2083624;28;20829;-52
2024/01/02 04:57:18;;;;;;;1.30;0.43;;;;;17.40;98234.00;;;;2071220;28;20758;-51
2024/01/02 04:58:19;;;;;;;2.30;0.40;;;;;17.40;98218.00;;;;2085715;28;20230;-51
2024/01/02 04:59:19;;;;;;;1.00;0.40;;;;;17.40;98213.00;;;;2080013;28;20264;-51
2024/01/02 05:00:19;;;;;;;1.20;0.43;;;;;17.40;98218.00;;;;2086946;28;20214;-52
2024/01/02 05:01:20;;;;;;;1.17;0.50;;;;;17.40;98207.00;;;;2088268;28;20304;-52
2024/01/02 05:02:22;;;;;;;1.20;0.47;;;;;17.40;98205.00;;;;2081031;28;20223;-52
2024/01/02 05:03:23;;;;;;;1.30;0.40;;;;;17.40;98205.00;;;;2079841;28;20235;-51